Time;durP1;ratioP1;P1;durP2;ratioP2;P2;SDS_P1;SDS_P2;PMS_P1;PMS_P2;Temp;Humidity;BMP_temperature;BMP_pressure;BME280_temperature;BME280_humidity;BME280_pressure;Samples;Min_cycle;Max_cycle;Signal;HPM_P1;HPM_P2
2023/01/25 00:00:42;;;;;;;23.15;15.02;;;;;;;;;;5043477;28;20896;-43
2023/01/25 00:03:07;;;;;;;22.90;15.50;;;;;;;;;;5051333;28;20194;-43
2023/01/25 00:05:33;;;;;;;23.60;15.30;;;;;;;;;;5043007;28;20440;-43
2023/01/25 00:07:59;;;;;;;21.80;14.40;;;;;;;;;;5043409;28;20412;-43
2023/01/25 00:10:25;;;;;;;22.93;15.30;;;;;;;;;;5045158;28;20414;-43
2023/01/25 00:12:51;;;;;;;24.43;14.00;;;;;;;;;;5047752;28;20431;-44
2023/01/25 00:15:17;;;;;;;18.60;13.60;;;;;;;;;;5044859;28;20449;-44
2023/01/25 00:17:43;;;;;;;20.97;14.20;;;;;;;;;;5044593;28;20422;-43
2023/01/25 00:20:09;;;;;;;24.73;14.32;;;;;;;;;;5043974;28;20500;-44
2023/01/25 00:22:35;;;;;;;20.25;12.75;;;;;;;;;;5044955;28;20600;-43
2023/01/25 00:25:01;;;;;;;21.03;13.50;;;;;;;;;;5042809;28;20306;-44
2023/01/25 00:27:27;;;;;;;23.57;13.53;;;;;;;;;;5053557;28;20920;-44
2023/01/25 00:29:53;;;;;;;18.20;12.17;;;;;;;;;;5055948;28;20920;-43
2023/01/25 00:32:19;;;;;;;22.93;13.87;;;;;;;;;;5046140;28;20866;-43
2023/01/25 00:34:55;;;;;;;27.13;14.67;;;;;;;;;;5053940;28;20428;-43
2023/01/25 00:37:27;;;;;;;24.30;15.00;;;;;;;;;;5048658;28;20767;-43
2023/01/25 00:39:53;;;;;;;24.13;15.63;;;;;;;;;;5055629;28;20221;-44
2023/01/25 00:42:20;;;;;;;23.30;15.67;;;;;;;;;;5049282;28;20218;-44
2023/01/25 00:44:46;;;;;;;25.40;15.30;;;;;;;;;;5054428;28;20823;-43
2023/01/25 00:47:13;;;;;;;23.48;15.23;;;;;;;;;;5050462;28;20185;-43
2023/01/25 00:49:39;;;;;;;26.48;16.35;;;;;;;;;;5049548;28;20182;-43
2023/01/25 00:52:06;;;;;;;27.23;15.65;;;;;;;;;;5049747;28;20171;-43
2023/01/25 00:54:32;;;;;;;26.80;15.63;;;;;;;;;;5052711;28;20210;-43
2023/01/25 00:56:57;;;;;;;26.30;14.17;;;;;;;;;;5057730;28;20186;-43
2023/01/25 00:59:24;;;;;;;24.60;15.10;;;;;;;;;;5052192;28;20433;-43
2023/01/25 01:01:50;;;;;;;28.85;15.73;;;;;;;;;;5055371;28;20413;-44
2023/01/25 01:04:16;;;;;;;25.20;16.67;;;;;;;;;;5057290;28;20601;-43
2023/01/25 01:06:42;;;;;;;21.43;14.47;;;;;;;;;;5049422;28;20171;-43
2023/01/25 01:09:12;;;;;;;21.60;14.25;;;;;;;;;;5049511;28;20397;-43
2023/01/25 01:11:38;;;;;;;25.23;15.70;;;;;;;;;;5049419;28;20264;-43
2023/01/25 01:14:04;;;;;;;26.08;16.48;;;;;;;;;;5048855;28;20179;-43
2023/01/25 01:16:30;;;;;;;22.67;14.20;;;;;;;;;;5050382;28;20210;-43
2023/01/25 01:18:55;;;;;;;21.50;14.60;;;;;;;;;;5053968;28;20496;-43
2023/01/25 01:21:21;;;;;;;23.33;14.40;;;;;;;;;;5051917;28;20783;-44
2023/01/25 01:23:47;;;;;;;24.58;15.38;;;;;;;;;;5055911;28;20826;-43
2023/01/25 01:26:14;;;;;;;24.20;13.90;;;;;;;;;;5049024;28;20213;-43
2023/01/25 01:28:41;;;;;;;25.60;15.43;;;;;;;;;;5055475;28;20500;-43
2023/01/25 01:31:10;;;;;;;21.13;14.30;;;;;;;;;;5049358;28;20258;-43
2023/01/25 01:33:36;;;;;;;24.83;14.45;;;;;;;;;;5049389;28;20540;-43
2023/01/25 01:36:11;;;;;;;23.23;14.80;;;;;;;;;;5056815;28;20204;-43
2023/01/25 01:38:37;;;;;;;24.17;14.45;;;;;;;;;;5055990;28;20413;-43
2023/01/25 01:41:04;;;;;;;25.50;15.30;;;;;;;;;;5050603;28;20518;-43
2023/01/25 01:43:30;;;;;;;24.48;15.00;;;;;;;;;;5049274;28;20998;-43
2023/01/25 01:45:57;;;;;;;23.23;14.88;;;;;;;;;;5045699;28;20194;-43
2023/01/25 01:48:23;;;;;;;25.10;15.25;;;;;;;;;;5051503;28;20186;-43
2023/01/25 01:50:52;;;;;;;20.50;13.47;;;;;;;;;;5045807;28;20176;-43
2023/01/25 01:53:18;;;;;;;21.52;13.27;;;;;;;;;;5053701;28;20818;-43
2023/01/25 01:55:44;;;;;;;19.98;13.15;;;;;;;;;;5053288;28;20239;-43
2023/01/25 01:58:10;;;;;;;19.98;14.00;;;;;;;;;;5049374;28;20540;-43
2023/01/25 02:00:39;;;;;;;20.67;13.38;;;;;;;;;;5049960;28;20650;-43
2023/01/25 02:03:05;;;;;;;21.30;13.25;;;;;;;;;;5045820;28;20209;-43
2023/01/25 02:05:43;;;;;;;21.63;14.05;;;;;;;;;;5044763;28;20198;-43
2023/01/25 02:08:11;;;;;;;22.73;15.80;;;;;;;;;;5044751;28;20174;-44
2023/01/25 02:10:38;;;;;;;24.50;15.57;;;;;;;;;;5047748;28;20269;-43
2023/01/25 02:13:03;;;;;;;27.77;16.48;;;;;;;;;;5038624;28;20182;-43
2023/01/25 02:15:33;;;;;;;22.90;15.30;;;;;;;;;;5047006;28;20209;-43
2023/01/25 02:17:59;;;;;;;21.85;15.00;;;;;;;;;;5050701;28;20458;-43
2023/01/25 02:20:25;;;;;;;27.27;15.00;;;;;;;;;;5048296;28;20219;-43
2023/01/25 02:22:54;;;;;;;26.40;15.10;;;;;;;;;;5053144;28;20404;-43
2023/01/25 02:25:20;;;;;;;27.83;16.63;;;;;;;;;;5044933;28;20422;-43
2023/01/25 02:27:52;;;;;;;25.27;14.73;;;;;;;;;;5044958;28;20190;-44
2023/01/25 02:30:18;;;;;;;29.90;16.52;;;;;;;;;;5045152;28;20184;-43
2023/01/25 02:32:44;;;;;;;29.60;17.13;;;;;;;;;;5044771;28;20231;-44
2023/01/25 02:35:23;;;;;;;32.87;17.27;;;;;;;;;;5048888;28;20426;-43
2023/01/25 02:37:50;;;;;;;25.13;16.42;;;;;;;;;;5050518;28;20409;-44
2023/01/25 02:40:17;;;;;;;26.88;15.60;;;;;;;;;;5041386;28;20180;-44
2023/01/25 02:42:43;;;;;;;27.38;17.05;;;;;;;;;;5050294;28;20182;-43
2023/01/25 02:45:13;;;;;;;25.00;16.27;;;;;;;;;;5045375;28;20191;-44
2023/01/25 02:47:39;;;;;;;22.15;14.60;;;;;;;;;;5052915;28;20186;-43
2023/01/25 02:50:05;;;;;;;23.40;14.90;;;;;;;;;;5044361;28;20188;-44
2023/01/25 02:52:31;;;;;;;25.80;15.77;;;;;;;;;;5045750;28;20463;-44
2023/01/25 02:54:57;;;;;;;24.07;14.40;;;;;;;;;;5043304;28;20635;-43
2023/01/25 02:57:23;;;;;;;22.63;14.97;;;;;;;;;;5046454;28;20429;-43
2023/01/25 02:59:49;;;;;;;27.43;16.87;;;;;;;;;;5049315;28;20423;-43
2023/01/25 03:02:14;;;;;;;25.87;14.47;;;;;;;;;;5045889;28;20453;-44
2023/01/25 03:04:40;;;;;;;28.63;14.80;;;;;;;;;;5043866;28;20652;-43
2023/01/25 03:07:06;;;;;;;24.67;14.73;;;;;;;;;;5051807;28;20421;-44
2023/01/25 03:09:32;;;;;;;26.45;14.05;;;;;;;;;;5044298;28;20409;-43
2023/01/25 03:11:58;;;;;;;21.83;14.43;;;;;;;;;;5051392;28;20182;-43
2023/01/25 03:14:24;;;;;;;24.33;15.50;;;;;;;;;;5045768;28;20488;-43
2023/01/25 03:16:50;;;;;;;26.97;16.50;;;;;;;;;;5048775;28;20413;-44
2023/01/25 03:19:16;;;;;;;24.07;15.03;;;;;;;;;;5045767;28;20457;-43
2023/01/25 03:21:42;;;;;;;24.25;14.30;;;;;;;;;;5043429;28;20445;-43
2023/01/25 03:24:10;;;;;;;33.20;17.92;;;;;;;;;;5044480;28;20230;-43
2023/01/25 03:27:09;;;;;;;23.30;14.07;;;;;;;;;;5044015;28;20168;-43
2023/01/25 03:29:21;;;;;;;26.98;16.73;;;;;;;;;;5042331;28;20197;-44
2023/01/25 03:31:47;;;;;;;26.17;16.13;;;;;;;;;;5050984;28;20163;-44
2023/01/25 03:34:13;;;;;;;27.42;14.75;;;;;;;;;;5046932;28;20422;-44
2023/01/25 03:36:39;;;;;;;25.97;16.00;;;;;;;;;;5046728;28;20182;-43
2023/01/25 03:39:05;;;;;;;27.07;16.90;;;;;;;;;;5048284;28;20521;-43
2023/01/25 03:41:31;;;;;;;25.50;14.63;;;;;;;;;;5047539;28;20410;-43
2023/01/25 03:43:57;;;;;;;23.40;14.70;;;;;;;;;;5043486;28;20457;-43
2023/01/25 03:46:23;;;;;;;24.27;14.13;;;;;;;;;;5043252;28;20970;-43
2023/01/25 03:48:49;;;;;;;30.37;14.70;;;;;;;;;;5043574;28;20794;-43
2023/01/25 03:51:15;;;;;;;25.67;14.43;;;;;;;;;;5043551;28;20405;-44
2023/01/25 03:53:41;;;;;;;23.13;13.03;;;;;;;;;;5051572;28;20650;-43
2023/01/25 03:56:08;;;;;;;22.43;14.03;;;;;;;;;;5047999;28;20435;-43
2023/01/25 03:58:35;;;;;;;25.10;15.90;;;;;;;;;;5051476;28;20544;-43
2023/01/25 04:01:02;;;;;;;27.25;15.52;;;;;;;;;;5043678;28;20182;-43
2023/01/25 04:03:28;;;;;;;25.15;13.52;;;;;;;;;;5051026;28;20559;-43
2023/01/25 04:05:56;;;;;;;25.42;15.45;;;;;;;;;;5042279;28;20215;-43
2023/01/25 04:08:22;;;;;;;23.67;14.63;;;;;;;;;;5041505;28;20217;-43
2023/01/25 04:10:51;;;;;;;22.23;13.50;;;;;;;;;;5041487;28;20176;-43
2023/01/25 04:13:18;;;;;;;26.10;13.48;;;;;;;;;;5044476;28;20612;-44
2023/01/25 04:15:43;;;;;;;24.52;13.70;;;;;;;;;;5047779;28;20203;-43
2023/01/25 04:18:09;;;;;;;27.90;14.60;;;;;;;;;;5040093;28;20605;-43
2023/01/25 04:20:35;;;;;;;24.27;13.27;;;;;;;;;;5047654;28;20410;-44
2023/01/25 04:23:01;;;;;;;25.20;13.10;;;;;;;;;;5042996;28;20463;-43
2023/01/25 04:25:27;;;;;;;22.83;12.40;;;;;;;;;;5042913;28;20426;-43
2023/01/25 04:27:53;;;;;;;20.03;10.50;;;;;;;;;;5043024;28;20747;-43
2023/01/25 04:30:19;;;;;;;25.40;12.70;;;;;;;;;;5045850;28;20897;-43
2023/01/25 04:32:45;;;;;;;20.83;11.10;;;;;;;;;;5040434;28;20798;-43
2023/01/25 04:35:11;;;;;;;19.58;10.38;;;;;;;;;;5046570;28;20430;-44
2023/01/25 04:37:37;;;;;;;18.73;11.13;;;;;;;;;;5047737;28;20626;-43
2023/01/25 04:40:03;;;;;;;20.83;11.00;;;;;;;;;;5043096;28;20401;-43
2023/01/25 04:42:30;;;;;;;23.80;11.63;;;;;;;;;;5043038;28;20488;-43
2023/01/25 04:44:55;;;;;;;22.40;11.60;;;;;;;;;;5042673;28;20207;-43
2023/01/25 04:47:21;;;;;;;23.90;11.57;;;;;;;;;;5043235;28;20638;-43
2023/01/25 04:49:47;;;;;;;29.30;11.33;;;;;;;;;;5050106;28;20937;-43
2023/01/25 04:52:13;;;;;;;25.20;11.87;;;;;;;;;;5043306;28;20397;-43
2023/01/25 04:54:39;;;;;;;26.60;12.67;;;;;;;;;;5050758;28;20456;-44
2023/01/25 04:57:05;;;;;;;21.60;11.90;;;;;;;;;;5042877;28;21134;-43
2023/01/25 04:59:31;;;;;;;20.75;10.77;;;;;;;;;;5042966;28;20810;-44
2023/01/25 05:01:57;;;;;;;20.03;10.13;;;;;;;;;;5042843;28;20180;-44
2023/01/25 05:04:23;;;;;;;25.40;12.07;;;;;;;;;;5044336;28;20549;-43
2023/01/25 05:06:49;;;;;;;31.10;12.97;;;;;;;;;;5047540;28;20435;-43
2023/01/25 05:09:16;;;;;;;22.20;10.93;;;;;;;;;;5044258;28;20898;-43
2023/01/25 05:11:42;;;;;;;25.20;11.68;;;;;;;;;;5042241;28;20463;-43
2023/01/25 05:14:08;;;;;;;28.55;12.65;;;;;;;;;;5043875;28;20262;-43
2023/01/25 05:16:34;;;;;;;26.63;11.63;;;;;;;;;;5046534;28;20206;-43
2023/01/25 05:19:00;;;;;;;28.53;12.27;;;;;;;;;;5046537;28;20634;-43
2023/01/25 05:24:10;;;;;;;18.58;9.15;;;;;;;;;;5042605;28;20481;-43
2023/01/25 05:29:21;;;;;;;25.20;11.52;;;;;;;;;;5042991;28;20983;-43
2023/01/25 05:31:47;;;;;;;21.07;10.03;;;;;;;;;;5050972;28;20187;-44
2023/01/25 05:34:13;;;;;;;18.77;9.93;;;;;;;;;;5047125;28;20491;-43
2023/01/25 05:36:39;;;;;;;19.97;9.77;;;;;;;;;;5045985;28;20402;-43
2023/01/25 05:39:05;;;;;;;22.83;11.33;;;;;;;;;;5046149;28;20420;-43
2023/01/25 05:41:31;;;;;;;23.27;10.75;;;;;;;;;;5047096;28;20414;-44
2023/01/25 05:43:57;;;;;;;26.73;11.03;;;;;;;;;;5044961;28;20671;-44
2023/01/25 05:46:23;;;;;;;28.47;11.03;;;;;;;;;;5047893;28;20485;-43
2023/01/25 05:48:49;;;;;;;25.93;11.20;;;;;;;;;;5050693;28;20440;-43
2023/01/25 05:51:15;;;;;;;22.47;10.50;;;;;;;;;;5047373;28;20408;-43
2023/01/25 05:53:41;;;;;;;29.60;13.53;;;;;;;;;;5045714;28;20410;-43
2023/01/25 05:56:07;;;;;;;27.40;12.27;;;;;;;;;;5052690;28;20512;-43
2023/01/25 05:58:33;;;;;;;24.15;11.98;;;;;;;;;;5045708;28;20467;-43
2023/01/25 06:01:00;;;;;;;26.83;13.23;;;;;;;;;;5045754;28;20187;-43
2023/01/25 06:03:26;;;;;;;30.55;13.43;;;;;;;;;;5047314;28;20462;-43
2023/01/25 06:06:00;;;;;;;27.03;11.37;;;;;;;;;;5051763;28;20247;-43
2023/01/25 06:08:26;;;;;;;24.48;11.88;;;;;;;;;;5053987;28;20498;-44
2023/01/25 06:10:52;;;;;;;27.73;13.30;;;;;;;;;;5043617;28;20206;-43
2023/01/25 06:13:19;;;;;;;24.83;11.50;;;;;;;;;;5047511;28;20207;-43
2023/01/25 06:15:54;;;;;;;23.38;11.32;;;;;;;;;;5045179;28;20430;-43
2023/01/25 06:18:21;;;;;;;24.95;12.07;;;;;;;;;;5049496;28;20552;-44
2023/01/25 06:20:47;;;;;;;26.42;12.90;;;;;;;;;;5047422;28;20182;-43
2023/01/25 06:23:13;;;;;;;30.45;13.27;;;;;;;;;;5048738;28;20203;-43
2023/01/25 06:25:39;;;;;;;25.33;11.73;;;;;;;;;;5044144;28;20199;-43
2023/01/25 06:28:05;;;;;;;20.60;10.70;;;;;;;;;;5049792;28;20650;-43
2023/01/25 06:30:31;;;;;;;22.90;12.25;;;;;;;;;;5049012;28;20402;-44
2023/01/25 06:32:58;;;;;;;33.50;13.87;;;;;;;;;;5044939;28;20262;-43
2023/01/25 06:35:24;;;;;;;25.20;11.70;;;;;;;;;;5044915;28;20425;-43
2023/01/25 06:37:50;;;;;;;24.38;12.60;;;;;;;;;;5045035;28;20175;-43
2023/01/25 06:40:16;;;;;;;33.07;15.00;;;;;;;;;;5044913;28;20252;-43
2023/01/25 06:42:42;;;;;;;33.55;13.32;;;;;;;;;;5044626;28;20442;-44
2023/01/25 06:45:08;;;;;;;29.95;13.10;;;;;;;;;;5048662;28;20701;-43
2023/01/25 06:47:34;;;;;;;28.55;14.98;;;;;;;;;;5048938;28;20208;-43
2023/01/25 06:50:00;;;;;;;29.90;13.90;;;;;;;;;;5044874;28;20171;-43
2023/01/25 06:52:29;;;;;;;33.67;15.07;;;;;;;;;;5044691;28;20167;-42
2023/01/25 06:54:55;;;;;;;36.05;14.73;;;;;;;;;;5051361;28;20422;-43
2023/01/25 06:57:21;;;;;;;30.87;12.50;;;;;;;;;;5044567;28;20742;-43
2023/01/25 06:59:47;;;;;;;26.47;14.50;;;;;;;;;;5045430;28;20917;-45
2023/01/25 07:02:16;;;;;;;28.13;12.80;;;;;;;;;;5052173;28;20770;-45
2023/01/25 07:04:42;;;;;;;27.25;13.95;;;;;;;;;;5051722;28;20469;-45
2023/01/25 07:07:08;;;;;;;39.55;14.45;;;;;;;;;;5040979;28;20179;-45
2023/01/25 07:09:35;;;;;;;36.83;14.38;;;;;;;;;;5048393;28;20167;-47
2023/01/25 07:12:03;;;;;;;33.65;13.50;;;;;;;;;;5044069;28;20542;-45
2023/01/25 07:14:29;;;;;;;31.00;13.40;;;;;;;;;;5051808;28;20707;-45
2023/01/25 07:16:55;;;;;;;27.33;12.95;;;;;;;;;;5043816;28;20194;-46
2023/01/25 07:19:21;;;;;;;30.10;15.40;;;;;;;;;;5046300;28;20191;-45
2023/01/25 07:21:47;;;;;;;29.98;14.55;;;;;;;;;;5041777;28;20418;-45
2023/01/25 07:24:14;;;;;;;32.87;13.87;;;;;;;;;;5046994;28;20199;-44
2023/01/25 07:26:40;;;;;;;28.33;14.80;;;;;;;;;;5048508;28;20413;-44
2023/01/25 07:29:08;;;;;;;28.80;13.35;;;;;;;;;;5041542;28;20223;-45
2023/01/25 07:31:34;;;;;;;32.38;12.20;;;;;;;;;;5051707;28;20171;-45
2023/01/25 07:34:00;;;;;;;25.95;12.73;;;;;;;;;;5043572;28;20167;-45
2023/01/25 07:36:26;;;;;;;34.53;15.00;;;;;;;;;;5048527;28;20268;-45
2023/01/25 07:38:56;;;;;;;34.17;13.90;;;;;;;;;;5044554;28;20497;-45
2023/01/25 07:41:23;;;;;;;26.67;12.82;;;;;;;;;;5045648;28;20174;-46
2023/01/25 07:43:49;;;;;;;33.67;15.23;;;;;;;;;;5041072;28;20249;-45
2023/01/25 07:46:16;;;;;;;29.50;11.80;;;;;;;;;;5046370;28;20203;-45
2023/01/25 07:48:45;;;;;;;36.10;15.50;;;;;;;;;;5049247;28;20405;-45
2023/01/25 07:51:11;;;;;;;30.52;13.27;;;;;;;;;;5044337;28;20540;-45
2023/01/25 07:53:38;;;;;;;30.33;14.80;;;;;;;;;;5043272;28;20737;-45
2023/01/25 07:56:04;;;;;;;32.35;12.38;;;;;;;;;;5049396;28;20666;-45
2023/01/25 07:58:30;;;;;;;32.60;14.40;;;;;;;;;;5049228;28;20195;-45
2023/01/25 08:00:56;;;;;;;33.30;15.27;;;;;;;;;;5043073;28;20278;-45
2023/01/25 08:03:22;;;;;;;41.30;15.63;;;;;;;;;;5045844;28;20484;-40
2023/01/25 08:05:48;;;;;;;36.00;16.10;;;;;;;;;;5041922;28;20483;-43
2023/01/25 08:08:14;;;;;;;32.80;15.33;;;;;;;;;;5044469;28;20413;-43
2023/01/25 08:10:40;;;;;;;36.97;16.75;;;;;;;;;;5042512;28;20492;-43
2023/01/25 08:13:07;;;;;;;35.60;15.90;;;;;;;;;;5043200;28;20254;-43
2023/01/25 08:15:33;;;;;;;41.05;15.48;;;;;;;;;;5042591;28;20437;-43
2023/01/25 08:17:59;;;;;;;27.73;13.77;;;;;;;;;;5042789;28;20187;-42
2023/01/25 08:20:25;;;;;;;32.15;14.07;;;;;;;;;;5044765;28;20406;-43
2023/01/25 08:22:51;;;;;;;30.53;13.37;;;;;;;;;;5047340;28;20186;-42
2023/01/25 08:25:17;;;;;;;37.42;15.20;;;;;;;;;;5044016;28;20825;-43
2023/01/25 08:27:44;;;;;;;40.20;15.90;;;;;;;;;;5048128;28;20189;-43
2023/01/25 08:30:11;;;;;;;30.60;14.05;;;;;;;;;;5051233;28;20889;-43
2023/01/25 08:32:37;;;;;;;37.25;14.15;;;;;;;;;;5042857;28;20229;-44
2023/01/25 08:35:04;;;;;;;32.17;13.52;;;;;;;;;;5040316;28;20202;-43
2023/01/25 08:37:30;;;;;;;38.28;15.50;;;;;;;;;;5044157;28;20176;-43
2023/01/25 08:39:56;;;;;;;34.83;15.30;;;;;;;;;;5041864;28;20537;-44
2023/01/25 08:42:23;;;;;;;38.35;16.98;;;;;;;;;;5044935;28;20178;-43
2023/01/25 08:44:49;;;;;;;40.22;15.48;;;;;;;;;;5047174;28;20217;-43
2023/01/25 08:47:15;;;;;;;30.55;15.32;;;;;;;;;;5044630;28;20194;-44
2023/01/25 08:49:41;;;;;;;36.80;17.23;;;;;;;;;;5046104;28;20620;-43
2023/01/25 08:52:07;;;;;;;31.73;16.03;;;;;;;;;;5046676;28;20972;-43
2023/01/25 08:54:33;;;;;;;40.43;18.03;;;;;;;;;;5046159;28;20437;-44
2023/01/25 08:57:00;;;;;;;37.17;16.63;;;;;;;;;;5046565;28;20500;-43
2023/01/25 08:59:26;;;;;;;37.10;15.50;;;;;;;;;;5048454;28;20418;-44
2023/01/25 09:01:52;;;;;;;37.65;17.10;;;;;;;;;;5051476;28;20193;-43
2023/01/25 09:04:18;;;;;;;44.45;18.05;;;;;;;;;;5048184;28;20195;-43
2023/01/25 09:06:44;;;;;;;36.57;16.13;;;;;;;;;;5046688;28;20167;-44
2023/01/25 09:09:11;;;;;;;37.90;16.95;;;;;;;;;;5046299;28;20901;-43
2023/01/25 09:11:39;;;;;;;40.63;17.30;;;;;;;;;;5046471;28;20183;-43
2023/01/25 09:14:05;;;;;;;39.28;17.35;;;;;;;;;;5046220;28;20183;-43
2023/01/25 09:16:31;;;;;;;34.38;15.43;;;;;;;;;;5047432;28;20202;-44
2023/01/25 09:18:59;;;;;;;47.08;19.25;;;;;;;;;;5051275;28;20175;-43
2023/01/25 09:21:25;;;;;;;47.33;18.67;;;;;;;;;;5049221;28;20553;-44
2023/01/25 09:23:52;;;;;;;39.33;17.85;;;;;;;;;;5045823;28;20194;-44
2023/01/25 09:26:18;;;;;;;44.08;17.35;;;;;;;;;;5046340;28;20195;-43
2023/01/25 09:28:48;;;;;;;36.28;16.55;;;;;;;;;;5054422;28;20179;-43
2023/01/25 09:31:14;;;;;;;40.60;17.80;;;;;;;;;;5046099;28;20178;-43
2023/01/25 09:33:41;;;;;;;38.77;16.80;;;;;;;;;;5045865;28;20259;-44
2023/01/25 09:36:07;;;;;;;36.22;15.07;;;;;;;;;;5050184;28;20430;-44
2023/01/25 09:38:33;;;;;;;38.42;15.73;;;;;;;;;;5049919;28;20175;-43
2023/01/25 09:41:18;;;;;;;34.40;14.90;;;;;;;;;;5043014;28;20180;-44
2023/01/25 09:43:53;;;;;;;41.83;14.95;;;;;;;;;;5050636;28;20202;-43
2023/01/25 09:46:25;;;;;;;34.53;14.98;;;;;;;;;;5047638;28;20197;-43
2023/01/25 09:49:01;;;;;;;29.55;13.70;;;;;;;;;;5045796;28;20163;-43
2023/01/25 09:51:42;;;;;;;27.75;13.95;;;;;;;;;;5047531;28;20175;-43
2023/01/25 09:54:09;;;;;;;33.92;14.52;;;;;;;;;;5045263;28;20191;-43
2023/01/25 09:56:36;;;;;;;31.67;14.25;;;;;;;;;;5045551;28;20776;-43
2023/01/25 09:59:10;;;;;;;31.02;14.30;;;;;;;;;;5045354;28;20194;-43
2023/01/25 10:01:52;;;;;;;33.38;14.50;;;;;;;;;;5045039;28;20270;-43
2023/01/25 10:04:26;;;;;;;34.83;15.68;;;;;;;;;;5047791;28;20203;-43
2023/01/25 10:06:54;;;;;;;38.78;17.13;;;;;;;;;;5049498;28;20662;-44
2023/01/25 10:09:23;;;;;;;42.08;14.80;;;;;;;;;;5042128;28;20174;-44
2023/01/25 10:11:49;;;;;;;32.20;12.85;;;;;;;;;;5049799;28;20240;-43
2023/01/25 10:14:16;;;;;;;30.10;14.60;;;;;;;;;;5046428;28;20175;-43
2023/01/25 10:16:45;;;;;;;33.85;14.88;;;;;;;;;;5045399;28;20186;-44
2023/01/25 10:19:14;;;;;;;27.73;13.35;;;;;;;;;;5045335;28;20225;-43
2023/01/25 10:21:46;;;;;;;38.20;14.70;;;;;;;;;;5045160;28;20180;-43
2023/01/25 10:24:40;;;;;;;31.63;12.60;;;;;;;;;;5044478;28;20190;-43
2023/01/25 10:27:12;;;;;;;36.88;14.95;;;;;;;;;;5048004;28;20186;-43
2023/01/25 10:29:38;;;;;;;32.20;15.57;;;;;;;;;;5045210;28;20230;-43
2023/01/25 10:32:15;;;;;;;27.80;13.60;;;;;;;;;;5049574;28;20234;-43
2023/01/25 10:34:44;;;;;;;29.95;15.05;;;;;;;;;;5049162;28;20554;-43
2023/01/25 10:37:15;;;;;;;32.50;13.50;;;;;;;;;;5041553;28;20666;-43
2023/01/25 10:39:44;;;;;;;34.63;15.23;;;;;;;;;;5049759;28;20191;-43
2023/01/25 10:42:12;;;;;;;33.45;15.10;;;;;;;;;;5045789;28;20183;-43
2023/01/25 10:44:38;;;;;;;33.20;14.95;;;;;;;;;;5044412;28;20214;-43
2023/01/25 10:47:06;;;;;;;38.40;13.50;;;;;;;;;;5042053;28;20250;-43
2023/01/25 10:49:41;;;;;;;34.60;14.95;;;;;;;;;;5045679;28;20442;-43
2023/01/25 10:52:27;;;;;;;32.70;13.85;;;;;;;;;;5044452;28;20206;-43
2023/01/25 10:55:05;;;;;;;30.85;16.23;;;;;;;;;;5045456;28;20206;-43
2023/01/25 10:57:31;;;;;;;33.20;15.35;;;;;;;;;;5045584;28;20265;-43
2023/01/25 11:00:09;;;;;;;37.15;16.08;;;;;;;;;;5049345;28;20186;-43
2023/01/25 11:02:35;;;;;;;32.80;15.57;;;;;;;;;;5049001;28;20654;-43
2023/01/25 11:05:16;;;;;;;38.20;15.20;;;;;;;;;;5040911;28;20218;-43
2023/01/25 11:07:42;;;;;;;30.33;14.88;;;;;;;;;;5049278;28;20413;-43
2023/01/25 11:10:26;;;;;;;36.93;14.77;;;;;;;;;;5044728;28;20179;-43
2023/01/25 11:13:11;;;;;;;30.92;14.55;;;;;;;;;;5050974;28;20433;-42
2023/01/25 11:15:37;;;;;;;29.65;11.63;;;;;;;;;;5048923;28;20248;-43
2023/01/25 11:18:07;;;;;;;36.43;14.97;;;;;;;;;;5052405;28;20175;-43
2023/01/25 11:20:33;;;;;;;23.05;11.57;;;;;;;;;;5045140;28;20410;-43
2023/01/25 11:22:59;;;;;;;38.00;15.98;;;;;;;;;;5046667;28;20183;-42
2023/01/25 11:25:32;;;;;;;31.80;15.20;;;;;;;;;;5048820;28;20206;-43
2023/01/25 11:28:11;;;;;;;32.10;12.80;;;;;;;;;;5051372;28;20414;-43
2023/01/25 11:30:37;;;;;;;29.90;14.27;;;;;;;;;;5051756;28;20173;-43
2023/01/25 11:33:08;;;;;;;32.10;14.75;;;;;;;;;;5051762;28;21562;-43
2023/01/25 11:35:35;;;;;;;26.90;13.00;;;;;;;;;;5051491;28;20271;-42
2023/01/25 11:38:13;;;;;;;24.92;11.57;;;;;;;;;;5043941;28;20171;-42
2023/01/25 11:40:46;;;;;;;24.80;11.27;;;;;;;;;;5048579;28;20198;-46
2023/01/25 11:43:14;;;;;;;24.98;10.65;;;;;;;;;;5043463;28;20210;-41
2023/01/25 11:46:00;;;;;;;24.40;11.48;;;;;;;;;;5043486;28;20206;-43
2023/01/25 11:48:32;;;;;;;28.13;12.30;;;;;;;;;;5043786;28;20178;-43
2023/01/25 11:51:17;;;;;;;27.95;13.05;;;;;;;;;;5043624;28;20183;-43
2023/01/25 11:53:55;;;;;;;28.13;13.57;;;;;;;;;;5043270;28;20647;-43
2023/01/25 11:56:27;;;;;;;21.40;12.25;;;;;;;;;;5045397;28;20573;-43
2023/01/25 11:58:56;;;;;;;26.05;13.93;;;;;;;;;;5047186;28;20244;-43
2023/01/25 12:01:28;;;;;;;29.60;13.52;;;;;;;;;;5045019;28;20175;-43
2023/01/25 12:04:06;;;;;;;29.63;12.80;;;;;;;;;;5048564;28;20210;-43
2023/01/25 12:06:51;;;;;;;32.72;14.40;;;;;;;;;;5047152;28;20914;-43
2023/01/25 12:09:35;;;;;;;27.42;14.10;;;;;;;;;;5050755;28;20582;-44
2023/01/25 12:12:07;;;;;;;30.55;13.60;;;;;;;;;;5042967;28;20169;-43
2023/01/25 12:14:52;;;;;;;28.40;13.95;;;;;;;;;;5046466;28;20198;-45
2023/01/25 12:17:23;;;;;;;26.40;12.63;;;;;;;;;;5044793;28;20184;-41
2023/01/25 12:19:52;;;;;;;24.92;12.45;;;;;;;;;;5048861;28;20258;-41
2023/01/25 12:22:17;;;;;;;27.50;12.25;;;;;;;;;;5042495;28;20179;-41
2023/01/25 12:24:57;;;;;;;28.63;11.33;;;;;;;;;;5041707;28;20553;-40
2023/01/25 12:27:42;;;;;;;35.97;14.88;;;;;;;;;;5044526;28;20418;-41
2023/01/25 12:30:15;;;;;;;31.60;12.88;;;;;;;;;;5042441;28;20175;-41
2023/01/25 12:32:51;;;;;;;31.27;13.90;;;;;;;;;;5042223;28;20178;-41
2023/01/25 12:35:17;;;;;;;25.00;11.85;;;;;;;;;;5044911;28;20275;-47
2023/01/25 12:37:43;;;;;;;28.07;13.00;;;;;;;;;;5046995;28;20183;-41
2023/01/25 12:40:13;;;;;;;28.20;13.45;;;;;;;;;;5043291;28;20897;-45
2023/01/25 12:42:44;;;;;;;32.10;13.95;;;;;;;;;;5050326;28;20181;-42
2023/01/25 12:45:13;;;;;;;23.13;12.60;;;;;;;;;;5042953;28;20207;-45
2023/01/25 12:47:44;;;;;;;29.25;12.68;;;;;;;;;;5042319;28;20187;-41
2023/01/25 12:50:19;;;;;;;29.98;14.32;;;;;;;;;;5050110;28;20178;-42
2023/01/25 12:52:46;;;;;;;33.08;14.15;;;;;;;;;;5042309;28;20189;-41
2023/01/25 12:55:14;;;;;;;27.67;12.25;;;;;;;;;;5048965;28;20257;-44
2023/01/25 12:57:57;;;;;;;35.92;15.32;;;;;;;;;;5041929;28;20207;-41
2023/01/25 13:00:27;;;;;;;32.03;13.80;;;;;;;;;;5043985;28;20203;-42
2023/01/25 13:02:59;;;;;;;27.60;13.70;;;;;;;;;;5046862;28;20214;-42
2023/01/25 13:05:32;;;;;;;32.20;14.80;;;;;;;;;;5045016;28;20233;-43
2023/01/25 13:08:01;;;;;;;37.40;16.67;;;;;;;;;;5042560;28;20175;-41
2023/01/25 13:10:30;;;;;;;30.83;14.07;;;;;;;;;;5049692;28;20205;-41
2023/01/25 13:12:59;;;;;;;30.75;14.10;;;;;;;;;;5042309;28;20278;-43
2023/01/25 13:15:35;;;;;;;27.95;13.50;;;;;;;;;;5049072;28;20209;-41
2023/01/25 13:18:01;;;;;;;36.65;15.88;;;;;;;;;;5042245;28;20170;-41
2023/01/25 13:20:38;;;;;;;39.83;16.47;;;;;;;;;;5043742;28;20184;-44
2023/01/25 13:23:04;;;;;;;33.70;18.42;;;;;;;;;;5046490;28;20418;-47
2023/01/25 13:25:30;;;;;;;43.95;17.38;;;;;;;;;;5037852;28;20282;-45
2023/01/25 13:28:22;;;;;;;31.13;15.20;;;;;;;;;;5046695;28;20262;-45
2023/01/25 13:30:52;;;;;;;31.80;14.93;;;;;;;;;;5046074;28;20962;-45
2023/01/25 13:33:32;;;;;;;37.03;15.70;;;;;;;;;;5043806;28;20642;-45
2023/01/25 13:35:58;;;;;;;32.28;16.52;;;;;;;;;;5049050;28;20658;-45
2023/01/25 13:38:28;;;;;;;37.40;15.67;;;;;;;;;;5045816;28;20182;-43
2023/01/25 13:41:03;;;;;;;38.30;17.20;;;;;;;;;;5053740;28;20409;-43
2023/01/25 13:43:29;;;;;;;33.47;17.05;;;;;;;;;;5045974;28;20190;-44
2023/01/25 13:45:57;;;;;;;40.87;16.17;;;;;;;;;;5045430;28;20253;-44
2023/01/25 13:48:24;;;;;;;38.33;16.90;;;;;;;;;;5047545;28;20417;-44
2023/01/25 13:50:51;;;;;;;38.55;16.88;;;;;;;;;;5050278;28;20313;-43
2023/01/25 13:53:19;;;;;;;37.30;17.92;;;;;;;;;;5042334;28;20176;-43
2023/01/25 13:55:47;;;;;;;36.22;16.42;;;;;;;;;;5050009;28;20190;-43
2023/01/25 13:58:18;;;;;;;40.13;17.25;;;;;;;;;;5047020;28;20266;-43
2023/01/25 14:00:49;;;;;;;35.25;15.65;;;;;;;;;;5050055;28;20179;-43
2023/01/25 14:03:15;;;;;;;44.55;17.80;;;;;;;;;;5045380;28;20555;-43
2023/01/25 14:05:48;;;;;;;37.60;15.45;;;;;;;;;;5053418;28;20570;-44
2023/01/25 14:08:17;;;;;;;31.95;14.30;;;;;;;;;;5049066;28;20658;-43
2023/01/25 14:10:43;;;;;;;36.55;14.90;;;;;;;;;;5042375;28;20178;-44
2023/01/25 14:13:12;;;;;;;36.72;14.80;;;;;;;;;;5049336;28;20175;-43
2023/01/25 14:15:38;;;;;;;37.60;14.98;;;;;;;;;;5050034;28;20203;-43
2023/01/25 14:18:17;;;;;;;46.87;18.07;;;;;;;;;;5045511;28;20214;-44
2023/01/25 14:20:44;;;;;;;40.75;16.08;;;;;;;;;;5048539;28;20413;-43
2023/01/25 14:23:23;;;;;;;48.80;17.83;;;;;;;;;;5044902;28;20210;-44
2023/01/25 14:25:49;;;;;;;44.05;15.38;;;;;;;;;;5047668;28;20194;-43
2023/01/25 14:28:16;;;;;;;39.35;18.02;;;;;;;;;;5044957;28;20255;-43